Garden Valley, Texas
Current Conditions -  °F | °C
As of 6:53 PM on Monday 26 Jan 2015 (Local Time) from KTYR Reporting Station
Clear Clear  
Wind Chill: 59°   Ceiling: Unl
Heat Index: 59°   Visibility: 10mi
Dew Point: 37°   Wind: 6mph
Humidity: 44%   Direction: 230°SW
Pressure: 30.09"   Gusts: NA
Location:  32.5326°N, 95.4249°W
Report Text: KTYR 270053Z 23005KT 10SM CLR 15/03 A3009 RMK AO2 SLP186 T01500028
Loading
Personal Weather Stations






























Interactive Weather Map New forecast layout! Learn more

10-Day Weather Forecast

Advertisements
Track Severe Weather on mobile